createdAt,value
2016-11-28T00:00:18.369Z,0.5
2016-11-28T00:00:38.921Z,0.5
2016-11-28T00:00:59.442Z,0.5
2016-11-28T00:01:19.967Z,0.5
2016-11-28T00:01:40.504Z,0.4
2016-11-28T00:02:01.033Z,0.5
2016-11-28T00:02:21.557Z,0.5
2016-11-28T00:02:42.117Z,0.5
2016-11-28T00:03:02.655Z,0.5
2016-11-28T00:03:23.223Z,0.5
2016-11-28T00:03:43.741Z,0.5
2016-11-28T00:04:04.295Z,0.5
2016-11-28T00:04:24.828Z,0.5
2016-11-28T00:04:45.358Z,0.4
2016-11-28T00:05:05.924Z,0.5
2016-11-28T00:05:26.434Z,0.4
2016-11-28T00:05:46.965Z,0.5
2016-11-28T00:06:07.508Z,0.5
2016-11-28T00:06:28.045Z,0.5
2016-11-28T00:06:48.591Z,0.5
2016-11-28T00:07:09.141Z,0.5
2016-11-28T00:07:29.690Z,0.5
2016-11-28T00:07:50.203Z,0.5
2016-11-28T00:08:10.722Z,0.5
2016-11-28T00:08:31.288Z,0.4
2016-11-28T00:08:51.823Z,0.5
2016-11-28T00:09:12.385Z,0.5
2016-11-28T00:09:32.914Z,0.5
2016-11-28T00:09:53.445Z,0.5
2016-11-28T00:10:13.998Z,0.5
2016-11-28T00:10:34.545Z,0.5
2016-11-28T00:10:55.087Z,0.4
2016-11-28T00:11:15.629Z,0.5
2016-11-28T00:11:36.165Z,0.4
2016-11-28T00:11:56.693Z,0.4
2016-11-28T00:12:17.224Z,0.4
2016-11-28T00:12:37.802Z,0.4
2016-11-28T00:12:58.336Z,0.4
2016-11-28T00:13:18.902Z,0.4
2016-11-28T00:13:39.433Z,0.4
2016-11-28T00:13:59.967Z,0.4
2016-11-28T00:14:20.485Z,0.4
2016-11-28T00:14:40.995Z,0.4
2016-11-28T00:15:01.523Z,0.5
2016-11-28T00:15:22.088Z,0.4
2016-11-28T00:15:42.617Z,0.4
2016-11-28T00:16:03.130Z,0.4
2016-11-28T00:16:23.675Z,0.4
2016-11-28T00:16:44.197Z,0.4
2016-11-28T00:17:04.723Z,0.4
2016-11-28T00:17:25.243Z,0.3
2016-11-28T00:17:45.794Z,0.4
2016-11-28T00:18:06.357Z,0.4
2016-11-28T00:18:26.901Z,0.4
2016-11-28T00:18:47.428Z,0.4
2016-11-28T00:19:07.959Z,0.4
2016-11-28T00:19:28.538Z,0.3
2016-11-28T00:19:49.078Z,0.4
2016-11-28T00:20:09.634Z,0.4
2016-11-28T00:20:30.177Z,0.4
2016-11-28T00:20:50.701Z,0.4
2016-11-28T00:21:11.231Z,0.4
2016-11-28T00:21:31.772Z,0.4
2016-11-28T00:21:52.305Z,0.4
2016-11-28T00:22:12.848Z,0.4
2016-11-28T00:22:33.408Z,0.4
2016-11-28T00:22:53.937Z,0.4
2016-11-28T00:23:14.473Z,0.3
2016-11-28T00:23:35.015Z,0.3
2016-11-28T00:23:55.526Z,0.4
2016-11-28T00:24:16.054Z,0.4
2016-11-28T00:24:36.573Z,0.3
2016-11-28T00:24:57.104Z,0.3
2016-11-28T00:25:17.638Z,0.3
2016-11-28T00:25:38.174Z,0.3
2016-11-28T00:25:58.703Z,0.3
2016-11-28T00:26:19.222Z,0.3
2016-11-28T00:26:39.747Z,0.3
2016-11-28T00:27:00.268Z,0.4
2016-11-28T00:27:20.819Z,0.3
2016-11-28T00:27:41.381Z,0.3
2016-11-28T00:28:01.898Z,0.3
2016-11-28T00:28:22.433Z,0.4
2016-11-28T00:28:42.963Z,0.2
2016-11-28T00:29:03.500Z,0.4
2016-11-28T00:29:24.089Z,0.4
2016-11-28T00:29:44.620Z,0.2
2016-11-28T00:30:05.146Z,0.4
2016-11-28T00:30:25.713Z,0.4
2016-11-28T00:30:46.279Z,0.3
2016-11-28T00:31:06.879Z,0.4
2016-11-28T00:31:27.412Z,0.3
2016-11-28T00:31:47.949Z,0.3
2016-11-28T00:32:08.488Z,0.4
2016-11-28T00:32:29.020Z,0.4
2016-11-28T00:32:49.577Z,0.2
2016-11-28T00:33:10.114Z,0.3
2016-11-28T00:33:30.659Z,0.3
2016-11-28T00:33:51.197Z,0.4
2016-11-28T00:34:11.723Z,0.3
2016-11-28T00:34:32.286Z,0.4
2016-11-28T00:34:52.850Z,0.3
2016-11-28T00:35:13.402Z,0.2
2016-11-28T00:35:33.986Z,0.4
2016-11-28T00:35:54.526Z,0.3
2016-11-28T00:36:15.057Z,0.3
2016-11-28T00:36:35.588Z,0.4
2016-11-28T00:36:56.133Z,0.3
2016-11-28T00:37:16.689Z,0.2
2016-11-28T00:37:37.204Z,0.4
2016-11-28T00:37:57.736Z,0.4
2016-11-28T00:38:18.287Z,0.3
2016-11-28T00:38:38.837Z,0.3
2016-11-28T00:38:59.372Z,0.3
2016-11-28T00:39:19.895Z,0.4
2016-11-28T00:39:40.447Z,0.3
2016-11-28T00:40:00.999Z,0.3
2016-11-28T00:40:21.518Z,0.4
2016-11-28T00:40:42.051Z,0.3
2016-11-28T00:41:02.582Z,0.3
2016-11-28T00:41:23.138Z,0.4
2016-11-28T00:41:43.698Z,0.3
2016-11-28T00:42:04.271Z,0.3
2016-11-28T00:42:24.828Z,0.2
2016-11-28T00:42:45.362Z,0.2
2016-11-28T00:43:05.900Z,0.3
2016-11-28T00:43:26.445Z,0.3
2016-11-28T00:43:46.996Z,0.3
2016-11-28T00:44:07.530Z,0.2
2016-11-28T00:44:28.104Z,0.2
2016-11-28T00:44:48.650Z,0.3
2016-11-28T00:45:09.206Z,0.2
2016-11-28T00:45:29.744Z,0.2
2016-11-28T00:45:50.275Z,0.2
2016-11-28T00:46:10.825Z,0.2
2016-11-28T00:46:31.387Z,0.3
2016-11-28T00:46:51.941Z,0.2
2016-11-28T00:47:12.508Z,0.3
2016-11-28T00:47:33.057Z,0.2
2016-11-28T00:47:53.630Z,0.3
2016-11-28T00:48:14.209Z,0.3
2016-11-28T00:48:34.786Z,0.3
2016-11-28T00:48:55.306Z,0.3
2016-11-28T00:49:15.845Z,0.2
2016-11-28T00:49:36.380Z,0.3
2016-11-28T00:49:56.921Z,0.3
2016-11-28T00:50:17.475Z,0.2
2016-11-28T00:50:38.000Z,0.3
2016-11-28T00:50:58.548Z,0.3
2016-11-28T00:51:19.086Z,0.2
2016-11-28T00:51:39.624Z,0.2
2016-11-28T00:52:00.208Z,0.1
2016-11-28T00:52:20.760Z,0.2
2016-11-28T00:52:41.332Z,0.2
2016-11-28T00:53:01.858Z,0.2
2016-11-28T00:53:22.399Z,0.1
2016-11-28T00:53:42.966Z,0.2
2016-11-28T00:54:03.520Z,0.1
2016-11-28T00:54:24.064Z,0.2
2016-11-28T00:54:44.615Z,0.2
2016-11-28T00:55:05.151Z,0.2
2016-11-28T00:55:25.698Z,0.2
2016-11-28T00:55:46.249Z,0.2
2016-11-28T00:56:06.777Z,0.2
2016-11-28T00:56:27.384Z,0.2
2016-11-28T00:56:47.912Z,0.2
2016-11-28T00:57:08.466Z,0.2
2016-11-28T00:57:29.014Z,0.2
2016-11-28T00:57:49.571Z,0.2
2016-11-28T00:58:10.113Z,0.2
2016-11-28T00:58:30.647Z,0.2
2016-11-28T00:58:51.195Z,0.2
2016-11-28T00:59:11.747Z,0.2
2016-11-28T00:59:32.308Z,0
2016-11-28T00:59:52.879Z,0.1
2016-11-28T01:00:13.425Z,0.1
2016-11-28T01:00:33.959Z,0.1
2016-11-28T01:00:54.522Z,0
2016-11-28T01:01:15.059Z,0
2016-11-28T01:01:35.653Z,0
2016-11-28T01:01:56.193Z,0
2016-11-28T01:02:16.778Z,0
2016-11-28T01:02:37.290Z,0
2016-11-28T01:02:57.800Z,0.1
2016-11-28T01:03:18.404Z,0.1
2016-11-28T01:03:39.023Z,0.1
2016-11-28T01:03:59.561Z,0
2016-11-28T01:04:20.130Z,-0.1
2016-11-28T01:04:40.663Z,0.1
2016-11-28T01:05:01.220Z,0
2016-11-28T01:05:21.738Z,0
2016-11-28T01:05:42.297Z,0
2016-11-28T01:06:02.846Z,0
2016-11-28T01:06:23.380Z,0
2016-11-28T01:06:43.908Z,0
2016-11-28T01:07:04.459Z,0.1
2016-11-28T01:07:25.045Z,0.1
2016-11-28T01:07:45.588Z,0.1
2016-11-28T01:08:06.128Z,0
2016-11-28T01:08:26.663Z,0
2016-11-28T01:08:47.206Z,0
2016-11-28T01:09:07.771Z,0
2016-11-28T01:09:28.341Z,0
2016-11-28T01:09:48.927Z,0
2016-11-28T01:10:09.479Z,0.1
2016-11-28T01:10:29.994Z,0.1
2016-11-28T01:10:50.546Z,0
2016-11-28T01:11:11.179Z,0
2016-11-28T01:11:31.766Z,0
2016-11-28T01:11:52.323Z,0
2016-11-28T01:12:12.865Z,0
2016-11-28T01:12:33.408Z,0
2016-11-28T01:12:53.943Z,0
2016-11-28T01:13:14.522Z,0.1
2016-11-28T01:13:35.045Z,0
2016-11-28T01:13:55.572Z,0
2016-11-28T01:14:16.129Z,0
2016-11-28T01:14:36.659Z,0.1
2016-11-28T01:14:57.219Z,0
2016-11-28T01:15:17.737Z,0
2016-11-28T01:15:38.277Z,0
2016-11-28T01:15:58.832Z,0
2016-11-28T01:16:19.403Z,0
2016-11-28T01:16:39.949Z,0
2016-11-28T01:17:00.483Z,0
2016-11-28T01:17:21.019Z,0
2016-11-28T01:17:41.540Z,0
2016-11-28T01:18:02.094Z,0
2016-11-28T01:18:22.673Z,0
2016-11-28T01:18:43.202Z,0
2016-11-28T01:19:03.725Z,0.1
2016-11-28T01:19:24.289Z,0
2016-11-28T01:19:44.849Z,-0.1
2016-11-28T01:20:05.387Z,0
2016-11-28T01:20:25.931Z,0
2016-11-28T01:20:46.501Z,0
2016-11-28T01:21:07.035Z,0
2016-11-28T01:21:27.569Z,0
2016-11-28T01:21:48.131Z,0
2016-11-28T01:22:08.679Z,0
2016-11-28T01:22:29.245Z,-0.1
2016-11-28T01:22:49.791Z,0
2016-11-28T01:23:10.349Z,0
2016-11-28T01:23:30.926Z,0
2016-11-28T01:23:51.460Z,-0.1
2016-11-28T01:24:12.069Z,-0.1
2016-11-28T01:24:32.599Z,-0.1
2016-11-28T01:24:53.173Z,-0.1
2016-11-28T01:25:13.743Z,-0.1
2016-11-28T01:25:34.314Z,-0.1
2016-11-28T01:25:54.848Z,-0.1
2016-11-28T01:26:15.422Z,0
2016-11-28T01:26:35.947Z,-0.1
2016-11-28T01:26:56.475Z,-0.1
2016-11-28T01:27:17.054Z,-0.1
2016-11-28T01:27:37.638Z,-0.1
2016-11-28T01:27:58.165Z,0
2016-11-28T01:28:18.717Z,-0.1
2016-11-28T01:28:39.268Z,0.1
2016-11-28T01:28:59.802Z,-0.1
2016-11-28T01:29:20.340Z,0
2016-11-28T01:29:40.913Z,0
2016-11-28T01:30:01.449Z,-0.1
2016-11-28T01:30:21.987Z,-0.1
2016-11-28T01:30:42.559Z,0
2016-11-28T01:31:03.093Z,-0.1
2016-11-28T01:31:23.616Z,-0.1
2016-11-28T01:31:44.179Z,-0.2
2016-11-28T01:32:04.725Z,-0.2
2016-11-28T01:32:25.275Z,-0.2
2016-11-28T01:32:45.838Z,-0.1
2016-11-28T01:33:06.364Z,-0.2
2016-11-28T01:33:26.891Z,-0.2
2016-11-28T01:33:47.419Z,-0.1
2016-11-28T01:34:07.967Z,-0.2
2016-11-28T01:34:28.502Z,-0.2
2016-11-28T01:34:49.103Z,-0.2
2016-11-28T01:35:09.655Z,-0.2
2016-11-28T01:35:30.253Z,-0.2
2016-11-28T01:35:50.778Z,-0.2
2016-11-28T01:36:11.329Z,-0.1
2016-11-28T01:36:31.868Z,-0.2
2016-11-28T01:36:52.416Z,-0.2
2016-11-28T01:37:12.954Z,-0.2
2016-11-28T01:37:33.492Z,-0.1
2016-11-28T01:37:54.072Z,-0.1
2016-11-28T01:38:14.607Z,-0.1
2016-11-28T01:38:35.152Z,-0.2
2016-11-28T01:38:55.677Z,-0.2
2016-11-28T01:39:16.214Z,-0.2
2016-11-28T01:39:36.840Z,-0.2
2016-11-28T01:39:57.400Z,-0.1
2016-11-28T01:40:17.937Z,-0.1
2016-11-28T01:40:38.480Z,-0.2
2016-11-28T01:40:59.055Z,-0.2
2016-11-28T01:41:19.598Z,-0.2
2016-11-28T01:41:40.167Z,-0.2
2016-11-28T01:42:00.702Z,-0.2
2016-11-28T01:42:21.239Z,-0.2
2016-11-28T01:42:41.770Z,0
2016-11-28T01:43:02.320Z,-0.1
2016-11-28T01:43:22.915Z,-0.1
2016-11-28T01:43:43.454Z,-0.1
2016-11-28T01:44:03.976Z,0
2016-11-28T01:44:24.514Z,-0.2
2016-11-28T01:44:45.041Z,-0.1
2016-11-28T01:45:05.574Z,-0.2
2016-11-28T01:45:26.102Z,-0.2
2016-11-28T01:45:46.654Z,-0.2
2016-11-28T01:46:07.236Z,-0.1
2016-11-28T01:46:27.790Z,-0.2
2016-11-28T01:46:48.361Z,-0.2
2016-11-28T01:47:08.906Z,-0.1
2016-11-28T01:47:29.496Z,-0.2
2016-11-28T01:47:50.025Z,-0.2
2016-11-28T01:48:10.559Z,-0.2
2016-11-28T01:48:31.113Z,-0.1
2016-11-28T01:48:51.633Z,-0.2
2016-11-28T01:49:12.156Z,-0.2
2016-11-28T01:49:32.706Z,-0.2
2016-11-28T01:49:53.240Z,-0.3
2016-11-28T01:50:13.772Z,-0.2
2016-11-28T01:50:34.298Z,-0.2
2016-11-28T01:50:54.835Z,-0.3
2016-11-28T01:51:15.389Z,-0.2
2016-11-28T01:51:35.921Z,-0.3
2016-11-28T01:51:56.474Z,-0.2
2016-11-28T01:52:17.019Z,-0.2
2016-11-28T01:52:37.555Z,-0.1
2016-11-28T01:52:58.092Z,-0.2
2016-11-28T01:53:18.651Z,-0.3
2016-11-28T01:53:39.178Z,-0.2
2016-11-28T01:53:59.704Z,-0.2
2016-11-28T01:54:20.236Z,-0.2
2016-11-28T01:54:40.785Z,-0.2
2016-11-28T01:55:01.347Z,-0.3
2016-11-28T01:55:21.886Z,-0.1
2016-11-28T01:55:42.431Z,-0.2
2016-11-28T01:56:02.968Z,-0.1
2016-11-28T01:56:23.511Z,-0.2
2016-11-28T01:56:44.042Z,-0.1
2016-11-28T01:57:04.593Z,-0.1
2016-11-28T01:57:25.126Z,-0.2
2016-11-28T01:57:45.674Z,-0.1
2016-11-28T01:58:06.238Z,-0.2
2016-11-28T01:58:26.787Z,-0.2
2016-11-28T01:58:47.347Z,-0.2
2016-11-28T01:59:07.887Z,-0.3
2016-11-28T01:59:28.446Z,-0.2
2016-11-28T01:59:48.983Z,-0.1
2016-11-28T02:00:09.518Z,-0.2
2016-11-28T02:00:30.058Z,-0.2
2016-11-28T02:00:50.586Z,-0.2
2016-11-28T02:01:11.134Z,-0.1
2016-11-28T02:01:31.662Z,-0.2
2016-11-28T02:01:52.198Z,-0.1
2016-11-28T02:02:12.731Z,-0.1
2016-11-28T02:02:33.265Z,-0.2
2016-11-28T02:02:53.832Z,-0.2
2016-11-28T02:03:14.375Z,-0.2
2016-11-28T02:03:34.912Z,-0.2
2016-11-28T02:03:55.448Z,-0.2
2016-11-28T02:04:15.970Z,-0.1
2016-11-28T02:04:36.515Z,-0.3
2016-11-28T02:04:57.048Z,-0.3
2016-11-28T02:05:17.574Z,-0.3
2016-11-28T02:05:38.111Z,-0.3
2016-11-28T02:05:58.702Z,-0.4
2016-11-28T02:06:19.264Z,-0.3
2016-11-28T02:06:39.808Z,-0.3
2016-11-28T02:07:00.365Z,-0.3
2016-11-28T02:07:20.942Z,-0.2
2016-11-28T02:07:41.486Z,-0.3
2016-11-28T02:08:02.028Z,-0.4
2016-11-28T02:08:22.565Z,-0.3
2016-11-28T02:08:43.116Z,-0.4
2016-11-28T02:09:03.661Z,-0.3
2016-11-28T02:09:24.216Z,-0.3
2016-11-28T02:09:44.757Z,-0.3
2016-11-28T02:10:05.291Z,-0.3
2016-11-28T02:10:25.825Z,-0.4
2016-11-28T02:10:46.350Z,-0.2
2016-11-28T02:11:06.911Z,-0.3
2016-11-28T02:11:27.472Z,-0.4
2016-11-28T02:11:48.009Z,-0.3
2016-11-28T02:12:08.535Z,-0.3
2016-11-28T02:12:29.063Z,-0.3
2016-11-28T02:12:49.588Z,-0.3
2016-11-28T02:13:10.140Z,-0.4
2016-11-28T02:13:30.692Z,-0.3
2016-11-28T02:13:51.231Z,-0.3
2016-11-28T02:14:11.772Z,-0.3
2016-11-28T02:14:32.346Z,-0.3
2016-11-28T02:14:52.895Z,-0.3
2016-11-28T02:15:13.452Z,-0.4
2016-11-28T02:15:34.032Z,-0.4
2016-11-28T02:15:54.578Z,-0.3
2016-11-28T02:16:15.092Z,-0.2
2016-11-28T02:16:35.640Z,-0.4
2016-11-28T02:16:56.180Z,-0.4
2016-11-28T02:17:16.716Z,-0.4
2016-11-28T02:17:37.275Z,-0.4
2016-11-28T02:17:57.836Z,-0.3
2016-11-28T02:18:18.414Z,-0.4
2016-11-28T02:18:38.983Z,-0.2
2016-11-28T02:18:59.555Z,-0.3
2016-11-28T02:19:20.081Z,-0.2
2016-11-28T02:19:40.629Z,-0.3
2016-11-28T02:20:01.176Z,-0.2
2016-11-28T02:20:21.719Z,-0.2
2016-11-28T02:20:42.295Z,-0.3
2016-11-28T02:21:02.860Z,-0.3
2016-11-28T02:21:23.403Z,-0.2
2016-11-28T02:21:43.960Z,-0.3
2016-11-28T02:22:04.521Z,-0.2
2016-11-28T02:22:25.077Z,-0.4
2016-11-28T02:22:45.627Z,-0.3
2016-11-28T02:23:06.210Z,-0.4
2016-11-28T02:23:26.755Z,-0.2
2016-11-28T02:23:47.308Z,-0.2
2016-11-28T02:24:07.874Z,-0.3
2016-11-28T02:24:28.436Z,-0.2
2016-11-28T02:24:48.994Z,-0.4
2016-11-28T02:25:09.524Z,-0.3
2016-11-28T02:25:30.088Z,-0.2
2016-11-28T02:25:50.640Z,-0.3
2016-11-28T02:26:11.187Z,-0.3
2016-11-28T02:26:31.728Z,-0.2
2016-11-28T02:26:52.292Z,-0.3
2016-11-28T02:27:12.838Z,-0.3
2016-11-28T02:27:33.411Z,-0.3
2016-11-28T02:27:53.952Z,-0.3
2016-11-28T02:28:14.514Z,-0.2
2016-11-28T02:28:35.047Z,-0.2
2016-11-28T02:28:55.601Z,-0.3
2016-11-28T02:29:16.156Z,-0.3
2016-11-28T02:29:36.739Z,-0.3
2016-11-28T02:29:57.280Z,-0.4
2016-11-28T02:30:17.870Z,-0.4
2016-11-28T02:30:38.412Z,-0.3
2016-11-28T02:30:58.949Z,-0.2
2016-11-28T02:31:19.505Z,-0.3
2016-11-28T02:31:40.052Z,-0.4
2016-11-28T02:32:00.608Z,-0.3
2016-11-28T02:32:21.158Z,-0.3
2016-11-28T02:32:41.727Z,-0.3
2016-11-28T02:33:02.286Z,-0.4
2016-11-28T02:33:22.829Z,-0.3
2016-11-28T02:33:43.372Z,-0.4
2016-11-28T02:34:03.904Z,-0.3
2016-11-28T02:34:24.448Z,-0.3
2016-11-28T02:34:45.024Z,-0.4
2016-11-28T02:35:05.589Z,-0.4
2016-11-28T02:35:26.146Z,-0.4
2016-11-28T02:35:46.683Z,-0.4
2016-11-28T02:36:07.230Z,-0.4
2016-11-28T02:36:27.787Z,-0.3
2016-11-28T02:36:48.351Z,-0.4
2016-11-28T02:37:08.896Z,-0.3
2016-11-28T02:37:29.438Z,-0.4
2016-11-28T02:37:49.999Z,-0.4
2016-11-28T02:38:10.516Z,-0.4
2016-11-28T02:38:31.079Z,-0.4
2016-11-28T02:38:51.620Z,-0.4
2016-11-28T02:39:12.194Z,-0.4
2016-11-28T02:39:32.720Z,-0.4
2016-11-28T02:39:53.292Z,-0.4
2016-11-28T02:40:13.847Z,-0.4
2016-11-28T02:40:34.376Z,-0.3
2016-11-28T02:40:54.897Z,-0.4
2016-11-28T02:41:15.440Z,-0.4
2016-11-28T02:41:35.986Z,-0.4
2016-11-28T02:41:56.514Z,-0.4
2016-11-28T02:42:17.075Z,-0.3
2016-11-28T02:42:37.629Z,-0.4
2016-11-28T02:42:58.189Z,-0.4
2016-11-28T02:43:18.725Z,-0.4
2016-11-28T02:43:39.280Z,-0.5
2016-11-28T02:43:59.818Z,-0.4
2016-11-28T02:44:20.356Z,-0.3
2016-11-28T02:44:40.901Z,-0.3
2016-11-28T02:45:01.433Z,-0.3
2016-11-28T02:45:21.985Z,-0.3
2016-11-28T02:45:42.544Z,-0.3
2016-11-28T02:46:03.101Z,-0.3
2016-11-28T02:46:23.683Z,-0.2
2016-11-28T02:46:44.253Z,-0.3
2016-11-28T02:47:04.812Z,-0.3
2016-11-28T02:47:25.357Z,-0.4
2016-11-28T02:47:45.885Z,-0.3
2016-11-28T02:48:06.417Z,-0.3
2016-11-28T02:48:26.958Z,-0.3
2016-11-28T02:48:47.509Z,-0.4
2016-11-28T02:49:08.059Z,-0.3
2016-11-28T02:49:28.592Z,-0.4
2016-11-28T02:49:49.140Z,-0.4
2016-11-28T02:50:09.685Z,-0.3
2016-11-28T02:50:30.226Z,-0.3
2016-11-28T02:50:50.765Z,-0.3
2016-11-28T02:51:11.315Z,-0.3
2016-11-28T02:51:31.872Z,-0.4
2016-11-28T02:51:52.443Z,-0.4
2016-11-28T02:52:12.964Z,-0.3
2016-11-28T02:52:33.504Z,-0.4
2016-11-28T02:52:54.080Z,-0.3
2016-11-28T02:53:14.617Z,-0.3
2016-11-28T02:53:35.890Z,-0.3
2016-11-28T02:53:56.431Z,-0.3
2016-11-28T02:54:16.970Z,-0.3
2016-11-28T02:54:37.522Z,-0.5
2016-11-28T02:54:58.047Z,-0.3
2016-11-28T02:55:18.574Z,-0.4
2016-11-28T02:55:39.122Z,-0.3
2016-11-28T02:55:59.662Z,-0.3
2016-11-28T02:56:20.181Z,-0.4
2016-11-28T02:56:45.456Z,-0.4
2016-11-28T02:57:06.000Z,-0.4
2016-11-28T02:57:26.565Z,-0.4
2016-11-28T02:57:47.121Z,-0.3
2016-11-28T02:58:07.653Z,-0.4
2016-11-28T02:58:28.204Z,-0.4
2016-11-28T02:58:48.762Z,-0.4
2016-11-28T02:59:09.330Z,-0.4
2016-11-28T02:59:29.882Z,-0.4
2016-11-28T02:59:50.441Z,-0.4
2016-11-28T03:00:11.027Z,-0.4
2016-11-28T03:00:31.558Z,-0.4
2016-11-28T03:00:52.125Z,-0.5
2016-11-28T03:01:12.704Z,-0.4
2016-11-28T03:01:33.240Z,-0.4
2016-11-28T03:01:53.804Z,-0.4
2016-11-28T03:02:14.364Z,-0.4
2016-11-28T03:02:34.927Z,-0.5
2016-11-28T03:02:55.452Z,-0.5
2016-11-28T03:03:16.045Z,-0.4
2016-11-28T03:03:36.583Z,-0.5
2016-11-28T03:03:57.124Z,-0.4
2016-11-28T03:04:17.681Z,-0.4
2016-11-28T03:04:38.225Z,-0.5
2016-11-28T03:04:58.800Z,-0.4
2016-11-28T03:05:19.372Z,-0.5
2016-11-28T03:05:39.954Z,-0.4
2016-11-28T03:06:00.502Z,-0.4
2016-11-28T03:06:21.030Z,-0.4
2016-11-28T03:06:41.553Z,-0.4
2016-11-28T03:07:02.103Z,-0.4
2016-11-28T03:07:22.630Z,-0.3
2016-11-28T03:07:43.176Z,-0.3
2016-11-28T03:08:03.729Z,-0.3
2016-11-28T03:08:24.274Z,-0.3
2016-11-28T03:08:44.820Z,-0.3
2016-11-28T03:09:05.384Z,-0.3
2016-11-28T03:09:25.920Z,-0.3
2016-11-28T03:09:46.444Z,-0.4
2016-11-28T03:10:07.021Z,-0.3
2016-11-28T03:10:27.528Z,-0.4
2016-11-28T03:10:48.083Z,-0.3
2016-11-28T03:11:08.647Z,-0.3
2016-11-28T03:11:29.236Z,-0.3
2016-11-28T03:11:49.780Z,-0.3
2016-11-28T03:12:10.367Z,-0.3
2016-11-28T03:12:30.912Z,-0.3
2016-11-28T03:12:51.477Z,-0.3
2016-11-28T03:13:12.016Z,-0.4
2016-11-28T03:13:32.574Z,-0.3
2016-11-28T03:13:53.143Z,-0.3
2016-11-28T03:14:13.666Z,-0.3
2016-11-28T03:14:34.231Z,-0.3
2016-11-28T03:14:54.826Z,-0.3
2016-11-28T03:15:15.368Z,-0.4
2016-11-28T03:15:35.918Z,-0.3
2016-11-28T03:15:56.442Z,-0.4
2016-11-28T03:16:16.995Z,-0.4
2016-11-28T03:16:37.519Z,-0.3
2016-11-28T03:16:58.040Z,-0.3
2016-11-28T03:17:18.631Z,-0.3
2016-11-28T03:17:39.158Z,-0.3
2016-11-28T03:17:59.704Z,-0.3
2016-11-28T03:18:20.254Z,-0.3
2016-11-28T03:18:40.801Z,-0.3
2016-11-28T03:19:01.380Z,-0.3
2016-11-28T03:19:21.934Z,-0.2
2016-11-28T03:19:42.467Z,-0.4
2016-11-28T03:20:03.016Z,-0.4
2016-11-28T03:20:23.564Z,-0.2
2016-11-28T03:20:44.104Z,-0.3
2016-11-28T03:21:04.669Z,-0.4
2016-11-28T03:21:25.275Z,-0.3
2016-11-28T03:21:45.814Z,-0.4
2016-11-28T03:22:06.344Z,-0.4
2016-11-28T03:22:26.893Z,-0.4
2016-11-28T03:22:47.434Z,-0.4
2016-11-28T03:23:07.984Z,-0.4
2016-11-28T03:23:28.596Z,-0.4
2016-11-28T03:23:49.155Z,-0.3
2016-11-28T03:24:09.695Z,-0.3
2016-11-28T03:24:30.220Z,-0.3
2016-11-28T03:24:50.768Z,-0.3
2016-11-28T03:25:11.283Z,-0.3
2016-11-28T03:25:31.811Z,-0.3
2016-11-28T03:25:52.340Z,-0.3
2016-11-28T03:26:12.890Z,-0.3
2016-11-28T03:26:33.454Z,-0.4
2016-11-28T03:26:54.017Z,-0.4
2016-11-28T03:27:14.565Z,-0.3
2016-11-28T03:27:35.103Z,-0.3
2016-11-28T03:27:55.647Z,-0.3
2016-11-28T03:28:16.194Z,-0.3
2016-11-28T03:28:36.727Z,-0.3
2016-11-28T03:28:57.271Z,-0.4
2016-11-28T03:29:17.799Z,-0.3
2016-11-28T03:29:38.339Z,-0.3
2016-11-28T03:29:58.895Z,-0.3
2016-11-28T03:30:19.505Z,-0.3
2016-11-28T03:30:40.058Z,-0.4
2016-11-28T03:31:00.639Z,-0.3
2016-11-28T03:31:21.169Z,-0.3
2016-11-28T03:31:41.695Z,-0.3
2016-11-28T03:32:02.237Z,-0.3
2016-11-28T03:32:22.796Z,-0.3
2016-11-28T03:32:43.345Z,-0.3
2016-11-28T03:33:03.886Z,-0.3
2016-11-28T03:33:24.431Z,-0.3
2016-11-28T03:33:44.977Z,-0.3
2016-11-28T03:34:05.548Z,-0.3
2016-11-28T03:34:26.111Z,-0.2
2016-11-28T03:34:46.657Z,-0.2
2016-11-28T03:35:07.196Z,-0.3
2016-11-28T03:35:27.725Z,-0.2
2016-11-28T03:35:48.308Z,-0.3
2016-11-28T03:36:08.866Z,-0.3
2016-11-28T03:36:29.413Z,-0.4
2016-11-28T03:36:49.974Z,-0.4
2016-11-28T03:37:10.507Z,-0.3
2016-11-28T03:37:31.083Z,-0.4
2016-11-28T03:37:51.625Z,-0.4
2016-11-28T03:38:12.172Z,-0.4
2016-11-28T03:38:32.726Z,-0.5
2016-11-28T03:38:53.278Z,-0.4
2016-11-28T03:39:13.856Z,-0.5
2016-11-28T03:39:34.417Z,-0.5
2016-11-28T03:39:54.960Z,-0.5
2016-11-28T03:40:15.516Z,-0.4
2016-11-28T03:40:36.041Z,-0.5
2016-11-28T03:40:56.560Z,-0.4
2016-11-28T03:41:17.136Z,-0.5
2016-11-28T03:41:37.687Z,-0.4
2016-11-28T03:41:58.205Z,-0.5
2016-11-28T03:42:18.757Z,-0.5
2016-11-28T03:42:41.466Z,-0.4
2016-11-28T03:43:01.986Z,-0.5
2016-11-28T03:43:22.529Z,-0.4
2016-11-28T03:43:43.050Z,-0.4
2016-11-28T03:44:03.577Z,-0.4
2016-11-28T03:44:24.120Z,-0.4
2016-11-28T03:44:44.663Z,-0.4
2016-11-28T03:45:05.207Z,-0.5
2016-11-28T03:45:25.748Z,-0.4
2016-11-28T03:45:46.322Z,-0.4
2016-11-28T03:46:06.884Z,-0.5
2016-11-28T03:46:27.405Z,-0.4
2016-11-28T03:46:47.992Z,-0.5
2016-11-28T03:47:08.543Z,-0.5
2016-11-28T03:47:29.113Z,-0.5
2016-11-28T03:47:49.655Z,-0.5
2016-11-28T03:48:10.218Z,-0.4
2016-11-28T03:48:30.764Z,-0.5
2016-11-28T03:48:51.315Z,-0.5
2016-11-28T03:49:11.856Z,-0.5
2016-11-28T03:49:32.403Z,-0.5
2016-11-28T03:49:52.957Z,-0.5
2016-11-28T03:50:13.500Z,-0.4
2016-11-28T03:50:34.046Z,-0.5
2016-11-28T03:50:54.644Z,-0.4
2016-11-28T03:51:15.172Z,-0.5
2016-11-28T03:51:35.697Z,-0.5
2016-11-28T03:51:56.228Z,-0.5
2016-11-28T03:52:16.752Z,-0.4
2016-11-28T03:52:37.849Z,-0.5
2016-11-28T03:52:58.411Z,-0.5
2016-11-28T03:53:18.950Z,-0.4
2016-11-28T03:53:39.513Z,-0.5
2016-11-28T03:54:00.069Z,-0.4
2016-11-28T03:54:20.621Z,-0.5
2016-11-28T03:54:41.160Z,-0.5
2016-11-28T03:55:01.740Z,-0.5
2016-11-28T03:55:22.283Z,-0.4
2016-11-28T03:55:42.826Z,-0.5
2016-11-28T03:56:03.379Z,-0.5
2016-11-28T03:56:23.917Z,-0.4
2016-11-28T03:56:44.472Z,-0.4
2016-11-28T03:57:04.997Z,-0.5
2016-11-28T03:57:25.508Z,-0.4
2016-11-28T03:57:46.046Z,-0.4
2016-11-28T03:58:06.594Z,-0.5
2016-11-28T03:58:27.150Z,-0.4
2016-11-28T03:58:47.702Z,-0.5
2016-11-28T03:59:08.220Z,-0.5
2016-11-28T03:59:28.776Z,-0.5
2016-11-28T03:59:49.321Z,-0.5
2016-11-28T04:00:09.889Z,-0.5
2016-11-28T04:00:30.459Z,-0.5
2016-11-28T04:00:50.984Z,-0.5
2016-11-28T04:01:11.531Z,-0.5
2016-11-28T04:01:32.066Z,-0.6
2016-11-28T04:01:52.618Z,-0.5
2016-11-28T04:02:13.147Z,-0.5
2016-11-28T04:02:33.695Z,-0.5
2016-11-28T04:02:54.232Z,-0.4
2016-11-28T04:03:14.758Z,-0.4
2016-11-28T04:03:35.335Z,-0.6
2016-11-28T04:03:55.941Z,-0.5
2016-11-28T04:04:16.476Z,-0.6
2016-11-28T04:04:37.040Z,-0.5
2016-11-28T04:04:57.585Z,-0.5
2016-11-28T04:05:18.159Z,-0.7
2016-11-28T04:05:38.701Z,-0.6
2016-11-28T04:05:59.249Z,-0.6
2016-11-28T04:06:19.789Z,-0.6
2016-11-28T04:06:40.356Z,-0.6
2016-11-28T04:07:00.896Z,-0.6
2016-11-28T04:07:21.432Z,-0.6
2016-11-28T04:07:41.996Z,-0.6
2016-11-28T04:08:02.597Z,-0.6
2016-11-28T04:08:23.465Z,-0.5
2016-11-28T04:08:44.021Z,-0.6
2016-11-28T04:09:04.550Z,-0.5
2016-11-28T04:09:25.084Z,-0.6
2016-11-28T04:09:45.611Z,-0.4
2016-11-28T04:10:06.155Z,-0.5
2016-11-28T04:10:26.699Z,-0.6
2016-11-28T04:10:47.271Z,-0.5
2016-11-28T04:11:07.806Z,-0.5
2016-11-28T04:11:28.370Z,-0.5
2016-11-28T04:11:48.916Z,-0.5
2016-11-28T04:12:09.442Z,-0.6
2016-11-28T04:12:29.978Z,-0.6
2016-11-28T04:12:50.504Z,-0.6
2016-11-28T04:13:11.098Z,-0.6
2016-11-28T04:13:31.641Z,-0.5
2016-11-28T04:13:52.175Z,-0.6
2016-11-28T04:14:12.713Z,-0.5
2016-11-28T04:14:33.272Z,-0.5
2016-11-28T04:14:53.819Z,-0.4
2016-11-28T04:15:14.362Z,-0.6
2016-11-28T04:15:34.934Z,-0.5
2016-11-28T04:15:55.455Z,-0.6
2016-11-28T04:16:15.984Z,-0.4
2016-11-28T04:16:36.519Z,-0.5
2016-11-28T04:16:57.050Z,-0.4
2016-11-28T04:17:17.588Z,-0.5
2016-11-28T04:17:38.114Z,-0.5
2016-11-28T04:17:58.687Z,-0.5
2016-11-28T04:18:19.255Z,-0.4
2016-11-28T04:18:39.813Z,-0.5
2016-11-28T04:19:00.347Z,-0.5
2016-11-28T04:19:20.945Z,-0.5
2016-11-28T04:19:41.466Z,-0.5
2016-11-28T04:20:02.040Z,-0.5
2016-11-28T04:20:22.576Z,-0.5
2016-11-28T04:20:43.119Z,-0.5
2016-11-28T04:21:03.669Z,-0.4
2016-11-28T04:21:24.222Z,-0.5
2016-11-28T04:21:44.785Z,-0.5
2016-11-28T04:22:05.345Z,-0.5
2016-11-28T04:22:25.883Z,-0.5
2016-11-28T04:22:46.410Z,-0.6
2016-11-28T04:23:06.936Z,-0.5
2016-11-28T04:23:27.485Z,-0.6
2016-11-28T04:23:48.000Z,-0.6
2016-11-28T04:24:08.578Z,-0.5
2016-11-28T04:24:29.603Z,-0.6
2016-11-28T04:24:50.155Z,-0.6
2016-11-28T04:25:10.704Z,-0.6
2016-11-28T04:25:31.250Z,-0.7
2016-11-28T04:25:51.789Z,-0.6
2016-11-28T04:26:12.313Z,-0.6
2016-11-28T04:26:32.835Z,-0.7
2016-11-28T04:26:53.392Z,-0.6
2016-11-28T04:27:13.930Z,-0.6
2016-11-28T04:27:34.501Z,-0.6
2016-11-28T04:27:55.066Z,-0.6
2016-11-28T04:28:15.626Z,-0.6
2016-11-28T04:28:36.224Z,-0.7
2016-11-28T04:28:56.784Z,-0.7
2016-11-28T04:29:17.318Z,-0.6
2016-11-28T04:29:37.893Z,-0.6
2016-11-28T04:29:58.551Z,-0.6
2016-11-28T04:30:19.187Z,-0.7
2016-11-28T04:30:39.697Z,-0.6
2016-11-28T04:31:00.255Z,-0.6
2016-11-28T04:31:20.780Z,-0.7
2016-11-28T04:31:41.328Z,-0.6
2016-11-28T04:32:01.896Z,-0.6
2016-11-28T04:32:22.472Z,-0.6
2016-11-28T04:32:43.008Z,-0.6
2016-11-28T04:33:03.611Z,-0.6
2016-11-28T04:33:24.130Z,-0.6
2016-11-28T04:33:44.656Z,-0.7
2016-11-28T04:34:05.217Z,-0.6
2016-11-28T04:34:25.727Z,-0.6
2016-11-28T04:39:42.153Z,-0.6
2016-11-28T04:40:02.722Z,-0.7
2016-11-28T04:40:23.256Z,-0.6
2016-11-28T04:40:43.796Z,-0.7
2016-11-28T04:41:04.336Z,-0.7
2016-11-28T04:41:24.866Z,-0.7
2016-11-28T04:41:45.404Z,-0.7
2016-11-28T04:42:05.954Z,-0.8
2016-11-28T04:42:26.478Z,-0.6
2016-11-28T04:42:47.050Z,-0.7